Hilo, HI

12:06 AM HST on iulie 29, 2016 (GMT -1000)
Sunrise Estates | | Change Station

Elev 413 ft 19.70 °N, 155.10 °W | Updated 25 seconds ago

Mostly Cloudy
Cer în general noros
75.7 °F
Feels Like 77 °F
N
0.0
Vânt variabil Vânt from SSV
Gusts 0.0 mph

astăzi
High -- | Low -- °F
--% Chance of Precip.
Ieri
High -- | Low -- °F
Precip. -- inch
Presiunea 30.04 inch
Vizibilitatea 10.0 mile
Nori Few 2800 ft
Nori risipiţi 3600 ft
Cer în general noros 6500 ft
Indicele de căldură 77 °F
Punctul de rouă 69 °F
Umiditatea 79%
Precipitaţii 0.00 inch
Adâncimea zăpezii Not available.
5:55 AM 6:57 PM
Semilună în descreştere, 23% visible
METAR PHTO 290953Z AUTO 01007KT 10SM FEW028 SCT036 BKN065 26/21 A3004 RMK AO2 SLP170 T02610206 403060222 TSNO
Presiunea 30.04 inch
Vizibilitatea 10.0 mile
Nori Few 2800 ft
Nori risipiţi 3600 ft
Cer în general noros 6500 ft
Indicele de căldură 77 °F
Punctul de rouă 69 °F
Umiditatea 79%
Precipitaţii 0.00 inch
Adâncimea zăpezii Not available.
5:55 AM 6:57 PM
Semilună în descreştere, 23% visible
METAR PHTO 290953Z AUTO 01007KT 10SM FEW028 SCT036 BKN065 26/21 A3004 RMK AO2 SLP170 T02610206 403060222 TSNO

10-Day Weather Forecast

Almanac

Astronomie

Jul. 29, 2016 Răsărit Apus
Timpul Actual
Crepusculul Civil
Crepusculul nautic
Răsărit Astronomic
Luna
Durata zilei lumină
Lungimea zilei
Tomorrow will be .
, % of the Moon is Illuminated

Extremele de azi

State Highs State Lows

Community

WunderPhotos

Upload Photos

1,928,310 photos uploaded!

WunderBlog® & News

Nearby

Calitatea aerului

  Calitatea aerului Index de calitate a aerului Poluat
Not available.

Adâncimea zapezii

Station Depth Elevation

Earthquake Activity

Oraş Distance Mag. Time & Date
Minimum magnitude displayed is 2.5.

Coastal Water Temperatures

Locul Temperatura

Stations

Nearby Weather Stations

Locaţia staţiei Temp Vânt rece Punctul de rouă Umiditatea Vânt Precip. Elev Actualizare Type
                   

Watches & Warnings

There are currently no watches in effect.